Time,TemperatureF,DewpointF,PressureIn,WindDirection,WindDirectionDegrees,WindSpeedMPH,WindSpeedGustMPH,Humidity,HourlyPrecipIn,Conditions,Clouds,dailyrainin,SoftwareType,DateUTC
2013-05-30 00:01:00,41.0,35.0,-100.00,SW,230,14.0,16.0,80,-99.99,,,0.00,,2013-05-30 06:01:00,
2013-05-30 00:32:00,41.0,35.0,-100.00,SW,230,14.0,16.0,80,-99.99,,,0.00,,2013-05-30 06:32:00,
2013-05-30 00:42:00,41.0,35.0,-100.00,SW,230,14.0,16.0,80,-99.99,,,0.00,,2013-05-30 06:42:00,
2013-05-30 00:52:00,41.0,35.0,-100.00,SW,230,14.0,16.0,80,-99.99,,,0.00,,2013-05-30 06:52:00,
2013-05-30 01:12:00,41.0,36.0,-100.00,SW,215,13.0,17.0,84,-99.99,,,0.00,,2013-05-30 07:12:00,
2013-05-30 01:21:00,41.0,36.0,-100.00,SW,215,13.0,17.0,84,-99.99,,,0.00,,2013-05-30 07:21:00,
2013-05-30 01:31:00,40.0,35.0,-100.00,SSW,210,14.0,18.0,83,-99.99,,,0.00,,2013-05-30 07:31:00,
2013-05-30 01:41:00,40.0,35.0,-100.00,SW,230,14.0,17.0,81,-99.99,,,0.00,,2013-05-30 07:41:00,
2013-05-30 01:42:00,40.0,35.0,-100.00,SSW,210,14.0,18.0,83,-99.99,,,0.00,,2013-05-30 07:42:00,
2013-05-30 01:52:00,40.0,35.0,-100.00,SW,220,13.0,16.0,81,-99.99,,,0.00,,2013-05-30 07:52:00,
2013-05-30 02:02:00,40.0,35.0,-100.00,SW,220,13.0,16.0,81,-99.99,,,0.00,,2013-05-30 08:02:00,
2013-05-30 02:11:00,40.0,35.0,-100.00,SW,230,14.0,17.0,81,-99.99,,,0.00,,2013-05-30 08:11:00,
2013-05-30 02:21:00,40.0,35.0,-100.00,SW,230,14.0,17.0,81,-99.99,,,0.00,,2013-05-30 08:21:00,
2013-05-30 02:31:00,40.0,35.0,-100.00,SW,230,14.0,17.0,81,-99.99,,,0.00,,2013-05-30 08:31:00,
2013-05-30 03:00:00,41.0,35.0,-100.00,SW,235,12.0,15.0,80,-99.99,,,0.00,,2013-05-30 09:00:00,
2013-05-30 03:11:00,40.0,34.0,-100.00,SSW,210,12.0,15.0,80,-99.99,,,0.00,,2013-05-30 09:11:00,
2013-05-30 03:21:00,40.0,34.0,-100.00,SSW,210,12.0,15.0,80,-99.99,,,0.00,,2013-05-30 09:21:00,
2013-05-30 03:32:00,41.0,35.0,-100.00,SW,235,12.0,15.0,80,-99.99,,,0.00,,2013-05-30 09:32:00,
2013-05-30 03:42:00,41.0,35.0,-100.00,SW,235,12.0,15.0,80,-99.99,,,0.00,,2013-05-30 09:42:00,
2013-05-30 03:53:00,41.0,35.0,-100.00,SW,235,12.0,15.0,80,-99.99,,,0.00,,2013-05-30 09:53:00,
2013-05-30 04:01:00,39.0,34.0,-100.00,SW,235,10.0,12.0,81,-99.99,,,0.00,,2013-05-30 10:01:00,
2013-05-30 04:12:00,40.0,35.0,-100.00,WSW,240,11.0,14.0,81,-99.99,,,0.00,,2013-05-30 10:12:00,
2013-05-30 04:22:00,40.0,35.0,-100.00,WSW,240,11.0,14.0,81,-99.99,,,0.00,,2013-05-30 10:22:00,
2013-05-30 04:32:00,39.0,34.0,-100.00,SW,235,10.0,12.0,81,-99.99,,,0.00,,2013-05-30 10:32:00,
2013-05-30 04:42:00,39.0,34.0,-100.00,SW,235,10.0,12.0,81,-99.99,,,0.00,,2013-05-30 10:42:00,
2013-05-30 04:52:00,39.0,34.0,-100.00,SW,235,10.0,12.0,81,-99.99,,,0.00,,2013-05-30 10:52:00,
2013-05-30 05:12:00,40.0,35.0,-100.00,SW,215,12.0,16.0,82,-99.99,,,0.00,,2013-05-30 11:12:00,
2013-05-30 05:21:00,40.0,35.0,-100.00,SW,215,12.0,16.0,82,-99.99,,,0.00,,2013-05-30 11:21:00,
2013-05-30 05:32:00,39.0,34.0,-100.00,SSW,210,14.0,17.0,83,-99.99,,,0.00,,2013-05-30 11:32:00,
2013-05-30 05:42:00,39.0,34.0,-100.00,SSW,210,14.0,17.0,83,-99.99,,,0.00,,2013-05-30 11:42:00,
2013-05-30 05:52:00,39.0,35.0,-100.00,SW,230,13.0,17.0,85,-99.99,,,0.00,,2013-05-30 11:52:00,
2013-05-30 06:01:00,39.0,35.0,-100.00,SW,230,13.0,17.0,85,-99.99,,,0.00,,2013-05-30 12:01:00,
2013-05-30 06:11:00,39.0,35.0,-100.00,SW,225,13.0,17.0,86,-99.99,,,-99.99,,2013-05-30 12:11:00,
2013-05-30 06:21:00,39.0,35.0,-100.00,SW,225,13.0,17.0,86,-99.99,,,-99.99,,2013-05-30 12:21:00,
2013-05-30 06:32:00,39.0,34.0,-100.00,SW,220,13.0,17.0,84,-99.99,,,0.00,,2013-05-30 12:32:00,
2013-05-30 06:42:00,39.0,34.0,-100.00,SW,220,13.0,17.0,84,-99.99,,,0.00,,2013-05-30 12:42:00,
2013-05-30 06:52:00,38.0,34.0,-100.00,SW,225,14.0,18.0,84,-99.99,,,0.00,,2013-05-30 12:52:00,
2013-05-30 07:01:00,38.0,34.0,-100.00,SW,225,14.0,18.0,84,-99.99,,,0.00,,2013-05-30 13:01:00,
2013-05-30 07:11:00,38.0,34.0,-100.00,SW,225,14.0,18.0,84,-99.99,,,0.00,,2013-05-30 13:11:00,
2013-05-30 07:22:00,38.0,34.0,-100.00,SW,225,14.0,18.0,84,-99.99,,,0.00,,2013-05-30 13:22:00,
2013-05-30 07:32:00,38.0,34.0,-100.00,SW,235,11.0,16.0,84,-99.99,,,0.00,,2013-05-30 13:32:00,
2013-05-30 07:42:00,38.0,34.0,-100.00,SW,235,11.0,16.0,84,-99.99,,,0.00,,2013-05-30 13:42:00,
2013-05-30 07:52:00,38.0,33.0,-100.00,SW,225,12.0,15.0,81,-99.99,,,0.00,,2013-05-30 13:52:00,
2013-05-30 08:00:00,39.0,33.0,-100.00,SW,225,12.0,16.0,78,-99.99,,,0.00,,2013-05-30 14:00:00,
2013-05-30 08:01:00,38.0,33.0,-100.00,SW,225,12.0,15.0,81,-99.99,,,0.00,,2013-05-30 14:01:00,
2013-05-30 08:11:00,38.0,33.0,-100.00,SW,225,12.0,15.0,81,-99.99,,,0.00,,2013-05-30 14:11:00,
2013-05-30 08:21:00,38.0,33.0,-100.00,SW,225,12.0,15.0,81,-99.99,,,0.00,,2013-05-30 14:21:00,
2013-05-30 08:32:00,39.0,33.0,-100.00,SW,225,12.0,16.0,78,-99.99,,,0.00,,2013-05-30 14:32:00,
2013-05-30 08:42:00,39.0,33.0,-100.00,SW,225,12.0,16.0,78,-99.99,,,0.00,,2013-05-30 14:42:00,
2013-05-30 08:51:00,39.0,33.0,-100.00,SW,225,12.0,16.0,78,-99.99,,,0.00,,2013-05-30 14:51:00,
2013-05-30 09:11:00,39.0,32.0,-100.00,WSW,240,9.0,14.0,76,-99.99,,,0.00,,2013-05-30 15:11:00,
2013-05-30 09:22:00,39.0,32.0,-100.00,WSW,240,9.0,14.0,76,-99.99,,,0.00,,2013-05-30 15:22:00,
2013-05-30 09:33:00,39.0,32.0,-100.00,SW,230,14.0,17.0,75,-99.99,,,0.00,,2013-05-30 15:33:00,
2013-05-30 09:42:00,39.0,32.0,-100.00,SW,230,14.0,17.0,75,-99.99,,,0.00,,2013-05-30 15:42:00,
2013-05-30 09:52:00,40.0,32.0,-100.00,SW,220,12.0,16.0,75,-99.99,,,-99.99,,2013-05-30 15:52:00,
2013-05-30 10:03:00,40.0,32.0,-100.00,SW,220,12.0,16.0,75,-99.99,,,-99.99,,2013-05-30 16:03:00,
2013-05-30 10:12:00,40.0,31.0,-100.00,SW,235,13.0,17.0,72,-99.99,,,0.00,,2013-05-30 16:12:00,
2013-05-30 10:22:00,40.0,31.0,-100.00,SW,235,13.0,17.0,72,-99.99,,,0.00,,2013-05-30 16:22:00,
2013-05-30 10:33:00,41.0,32.0,-100.00,WSW,240,11.0,15.0,71,-99.99,,,0.00,,2013-05-30 16:33:00,
2013-05-30 10:42:00,41.0,32.0,-100.00,WSW,240,11.0,15.0,71,-99.99,,,0.00,,2013-05-30 16:42:00,
2013-05-30 10:52:00,40.0,33.0,-100.00,SW,230,17.0,20.0,77,-99.99,,,0.00,,2013-05-30 16:52:00,
2013-05-30 11:02:00,40.0,33.0,-100.00,SW,230,17.0,20.0,77,-99.99,,,0.00,,2013-05-30 17:02:00,
2013-05-30 11:11:00,41.0,33.0,-100.00,SW,225,14.0,19.0,73,-99.99,,,0.00,,2013-05-30 17:11:00,
2013-05-30 11:22:00,41.0,33.0,-100.00,SW,225,14.0,19.0,73,-99.99,,,0.00,,2013-05-30 17:22:00,
2013-05-30 11:32:00,40.0,33.0,-100.00,SW,235,17.0,28.0,75,-99.99,,,0.00,,2013-05-30 17:32:00,
2013-05-30 11:42:00,40.0,33.0,-100.00,SW,235,17.0,28.0,75,-99.99,,,0.00,,2013-05-30 17:42:00,
2013-05-30 11:52:00,42.0,31.0,-100.00,West,270,8.0,16.0,64,-99.99,,,0.00,,2013-05-30 17:52:00,
2013-05-30 12:02:00,42.0,31.0,-100.00,West,270,8.0,16.0,64,-99.99,,,0.00,,2013-05-30 18:02:00,
2013-05-30 12:11:00,42.0,31.0,-100.00,West,270,8.0,16.0,64,-99.99,,,0.00,,2013-05-30 18:11:00,
2013-05-30 12:21:00,42.0,31.0,-100.00,West,270,8.0,16.0,64,-99.99,,,0.00,,2013-05-30 18:21:00,
2013-05-30 12:32:00,42.0,32.0,-100.00,WSW,240,15.0,23.0,67,-99.99,,,0.00,,2013-05-30 18:32:00,
2013-05-30 12:42:00,42.0,32.0,-100.00,WSW,240,15.0,23.0,67,-99.99,,,0.00,,2013-05-30 18:42:00,
2013-05-30 12:51:00,42.0,32.0,-100.00,SW,230,21.0,24.0,67,-99.99,,,0.00,,2013-05-30 18:51:00,
2013-05-30 13:01:00,42.0,32.0,-100.00,SW,230,21.0,24.0,67,-99.99,,,0.00,,2013-05-30 19:01:00,
2013-05-30 13:11:00,42.0,33.0,-100.00,SW,235,19.0,23.0,70,-99.99,,,0.00,,2013-05-30 19:11:00,
2013-05-30 13:22:00,42.0,33.0,-100.00,SW,235,19.0,23.0,70,-99.99,,,0.00,,2013-05-30 19:22:00,
2013-05-30 13:32:00,42.0,31.0,-100.00,SW,230,17.0,22.0,66,-99.99,,,0.00,,2013-05-30 19:32:00,
2013-05-30 13:42:00,42.0,31.0,-100.00,SW,230,17.0,22.0,66,-99.99,,,0.00,,2013-05-30 19:42:00,
2013-05-30 13:52:00,43.0,31.0,-100.00,SW,230,13.0,21.0,63,-99.99,,,0.00,,2013-05-30 19:52:00,
2013-05-30 14:01:00,43.0,31.0,-100.00,SW,230,13.0,21.0,63,-99.99,,,0.00,,2013-05-30 20:01:00,
2013-05-30 14:11:00,43.0,31.0,-100.00,SW,230,17.0,22.0,63,-99.99,,,0.00,,2013-05-30 20:11:00,
2013-05-30 14:22:00,43.0,31.0,-100.00,SW,230,17.0,22.0,63,-99.99,,,0.00,,2013-05-30 20:22:00,
2013-05-30 14:33:00,43.0,31.0,-100.00,SW,225,17.0,23.0,62,-99.99,,,0.00,,2013-05-30 20:33:00,
2013-05-30 14:41:00,43.0,31.0,-100.00,SW,225,17.0,23.0,62,-99.99,,,0.00,,2013-05-30 20:41:00,
2013-05-30 14:52:00,43.0,32.0,-100.00,SW,220,17.0,21.0,63,-99.99,,,0.00,,2013-05-30 20:52:00,
2013-05-30 15:01:00,45.0,31.0,-100.00,SW,225,17.0,19.0,57,-99.99,,,0.00,,2013-05-30 21:01:00,
2013-05-30 15:11:00,45.0,31.0,-100.00,SW,225,17.0,19.0,57,-99.99,,,0.00,,2013-05-30 21:11:00,
2013-05-30 15:22:00,45.0,31.0,-100.00,SW,225,17.0,19.0,57,-99.99,,,0.00,,2013-05-30 21:22:00,
2013-05-30 15:33:00,45.0,30.0,-100.00,WNW,295,12.0,29.0,55,-99.99,,,0.00,,2013-05-30 21:33:00,
2013-05-30 15:42:00,45.0,30.0,-100.00,WNW,295,12.0,29.0,55,-99.99,,,0.00,,2013-05-30 21:42:00,
2013-05-30 15:53:00,45.0,31.0,-100.00,West,280,11.0,15.0,57,-99.99,,,0.00,,2013-05-30 21:53:00,
2013-05-30 16:02:00,45.0,31.0,-100.00,West,280,11.0,15.0,57,-99.99,,,0.00,,2013-05-30 22:02:00,
2013-05-30 16:12:00,45.0,30.0,-100.00,WSW,245,11.0,16.0,56,-99.99,,,0.00,,2013-05-30 22:12:00,
2013-05-30 16:22:00,45.0,30.0,-100.00,WSW,245,11.0,16.0,56,-99.99,,,0.00,,2013-05-30 22:22:00,
2013-05-30 16:33:00,45.0,27.0,-100.00,SW,235,16.0,21.0,49,-99.99,,,0.00,,2013-05-30 22:33:00,
2013-05-30 16:42:00,45.0,27.0,-100.00,SW,235,16.0,21.0,49,-99.99,,,0.00,,2013-05-30 22:42:00,
2013-05-30 16:52:00,45.0,27.0,-100.00,SW,235,16.0,21.0,49,-99.99,,,0.00,,2013-05-30 22:52:00,
2013-05-30 17:11:00,46.0,31.0,-100.00,WNW,295,12.0,21.0,56,-99.99,,,0.00,,2013-05-30 23:11:00,
2013-05-30 17:22:00,46.0,31.0,-100.00,WNW,295,12.0,21.0,56,-99.99,,,0.00,,2013-05-30 23:22:00,
2013-05-30 17:31:00,46.0,32.0,-100.00,WNW,290,11.0,16.0,56,-99.99,,,0.00,,2013-05-30 23:31:00,
2013-05-30 17:41:00,46.0,32.0,-100.00,WNW,290,11.0,16.0,56,-99.99,,,0.00,,2013-05-30 23:41:00,
2013-05-30 17:52:00,46.0,32.0,-100.00,WNW,290,11.0,16.0,56,-99.99,,,0.00,,2013-05-30 23:52:00,
2013-05-30 18:00:00,45.0,30.0,-100.00,West,260,12.0,17.0,55,-99.99,,,0.00,,2013-05-31 00:00:00,
2013-05-30 18:01:00,46.0,31.0,-100.00,West,270,12.0,18.0,55,-99.99,,,0.00,,2013-05-31 00:01:00,
2013-05-30 18:11:00,46.0,31.0,-100.00,West,270,12.0,18.0,55,-99.99,,,0.00,,2013-05-31 00:11:00,
2013-05-30 18:21:00,45.0,30.0,-100.00,West,260,12.0,17.0,55,-99.99,,,0.00,,2013-05-31 00:21:00,
2013-05-30 18:32:00,45.0,30.0,-100.00,West,260,12.0,17.0,55,-99.99,,,0.00,,2013-05-31 00:32:00,
2013-05-30 18:42:00,45.0,30.0,-100.00,West,260,12.0,17.0,55,-99.99,,,0.00,,2013-05-31 00:42:00,
2013-05-30 18:52:00,45.0,30.0,-100.00,West,260,12.0,17.0,55,-99.99,,,0.00,,2013-05-31 00:52:00,
2013-05-30 19:12:00,45.0,31.0,-100.00,West,260,14.0,17.0,57,-99.99,,,0.00,,2013-05-31 01:12:00,
2013-05-30 19:21:00,45.0,31.0,-100.00,West,260,14.0,17.0,57,-99.99,,,0.00,,2013-05-31 01:21:00,
2013-05-30 19:31:00,45.0,32.0,-100.00,WNW,295,12.0,15.0,59,-99.99,,,0.00,,2013-05-31 01:31:00,
2013-05-30 19:42:00,45.0,32.0,-100.00,WNW,295,12.0,15.0,59,-99.99,,,0.00,,2013-05-31 01:42:00,
2013-05-30 19:52:00,44.0,33.0,-100.00,West,265,11.0,17.0,64,-99.99,,,0.00,,2013-05-31 01:52:00,
2013-05-30 20:02:00,44.0,33.0,-100.00,West,265,11.0,17.0,64,-99.99,,,0.00,,2013-05-31 02:02:00,
2013-05-30 20:11:00,44.0,33.0,-100.00,West,265,11.0,17.0,64,-99.99,,,0.00,,2013-05-31 02:11:00,
2013-05-30 20:21:00,44.0,33.0,-100.00,West,265,11.0,17.0,64,-99.99,,,0.00,,2013-05-31 02:21:00,
2013-05-30 20:32:00,44.0,31.0,-100.00,West,275,14.0,17.0,60,-99.99,,,-99.99,,2013-05-31 02:32:00,
2013-05-30 20:41:00,44.0,31.0,-100.00,West,275,14.0,17.0,60,-99.99,,,-99.99,,2013-05-31 02:41:00,
2013-05-30 20:51:00,44.0,31.0,-100.00,West,275,14.0,17.0,60,-99.99,,,-99.99,,2013-05-31 02:51:00,
2013-05-30 21:00:00,42.0,32.0,-100.00,WSW,245,10.0,15.0,67,-99.99,,,0.00,,2013-05-31 03:00:00,
2013-05-30 21:11:00,43.0,29.0,-100.00,WSW,240,12.0,18.0,59,-99.99,,,0.00,,2013-05-31 03:11:00,
2013-05-30 21:21:00,43.0,29.0,-100.00,WSW,240,12.0,18.0,59,-99.99,,,0.00,,2013-05-31 03:21:00,
2013-05-30 21:33:00,42.0,32.0,-100.00,WSW,245,10.0,15.0,67,-99.99,,,0.00,,2013-05-31 03:33:00,
2013-05-30 21:43:00,42.0,32.0,-100.00,WSW,245,10.0,15.0,67,-99.99,,,0.00,,2013-05-31 03:43:00,
2013-05-30 21:53:00,42.0,32.0,-100.00,WSW,245,10.0,15.0,67,-99.99,,,0.00,,2013-05-31 03:53:00,
2013-05-30 22:00:00,41.0,31.0,-100.00,WSW,250,14.0,17.0,68,-99.99,,,0.00,,2013-05-31 04:00:00,
2013-05-30 22:12:00,41.0,31.0,-100.00,West,265,7.0,9.0,66,-99.99,,,0.00,,2013-05-31 04:12:00,
2013-05-30 22:22:00,41.0,31.0,-100.00,West,265,7.0,9.0,66,-99.99,,,0.00,,2013-05-31 04:22:00,
2013-05-30 22:32:00,41.0,31.0,-100.00,WSW,250,14.0,17.0,68,-99.99,,,0.00,,2013-05-31 04:32:00,
2013-05-30 22:42:00,41.0,31.0,-100.00,WSW,250,14.0,17.0,68,-99.99,,,0.00,,2013-05-31 04:42:00,
2013-05-30 22:52:00,41.0,31.0,-100.00,WSW,250,14.0,17.0,68,-99.99,,,0.00,,2013-05-31 04:52:00,
2013-05-30 23:12:00,40.0,34.0,-100.00,WNW,300,9.0,12.0,79,-99.99,,,0.00,,2013-05-31 05:12:00,
2013-05-30 23:22:00,40.0,34.0,-100.00,WNW,300,9.0,12.0,79,-99.99,,,0.00,,2013-05-31 05:22:00,
2013-05-30 23:31:00,38.0,33.0,-100.00,West,270,8.0,10.0,81,-99.99,,,0.00,,2013-05-31 05:31:00,
2013-05-30 23:42:00,38.0,33.0,-100.00,West,270,8.0,10.0,81,-99.99,,,0.00,,2013-05-31 05:42:00,
2013-05-30 23:52:00,38.0,33.0,-100.00,West,270,8.0,10.0,81,-99.99,,,0.00,,2013-05-31 05:52:00,